createdAt,value
2019-05-07T00:01:13.479Z,99.90
2019-05-07T00:03:42.877Z,99.90
2019-05-07T00:06:12.455Z,99.90
2019-05-07T00:08:44.617Z,99.90
2019-05-07T00:11:12.894Z,99.90
2019-05-07T00:13:44.356Z,99.90
2019-05-07T00:16:13.259Z,99.90
2019-05-07T00:18:43.015Z,99.90
2019-05-07T00:21:12.688Z,99.90
2019-05-07T00:23:43.259Z,99.90
2019-05-07T00:26:13.295Z,99.90
2019-05-07T00:28:43.410Z,99.90
2019-05-07T00:31:13.312Z,99.90
2019-05-07T00:33:43.357Z,99.90
2019-05-07T00:36:23.119Z,99.90
2019-05-07T00:38:57.423Z,99.90
2019-05-07T00:41:38.773Z,99.90
2019-05-07T00:44:08.537Z,99.90
2019-05-07T00:46:37.931Z,99.90
2019-05-07T00:49:07.298Z,99.90
2019-05-07T00:51:36.768Z,99.90
2019-05-07T00:54:06.834Z,99.90
2019-05-07T00:56:36.171Z,99.90
2019-05-07T00:59:05.591Z,99.90
2019-05-07T01:01:35.559Z,99.90
2019-05-07T01:04:04.973Z,99.90
2019-05-07T01:06:37.221Z,99.90
2019-05-07T01:09:07.691Z,99.90
2019-05-07T01:11:37.028Z,99.90
2019-05-07T01:14:06.375Z,99.90
2019-05-07T01:16:35.714Z,99.90
2019-05-07T01:19:05.078Z,99.90
2019-05-07T01:21:34.453Z,99.90
2019-05-07T01:24:04.029Z,99.90
2019-05-07T01:26:33.455Z,99.90
2019-05-07T01:29:03.482Z,99.90
2019-05-07T01:31:37.438Z,99.90
2019-05-07T01:34:15.954Z,99.90
2019-05-07T01:36:45.349Z,99.90
2019-05-07T01:39:14.701Z,99.90
2019-05-07T01:41:44.533Z,99.90
2019-05-07T01:44:13.877Z,99.90
2019-05-07T01:46:43.249Z,99.90
2019-05-07T01:49:12.768Z,99.90
2019-05-07T01:51:42.394Z,99.90
2019-05-07T01:54:12.897Z,99.90
2019-05-07T01:56:42.844Z,99.90
2019-05-07T01:59:12.319Z,99.90
2019-05-07T02:01:42.940Z,99.90
2019-05-07T02:04:22.448Z,99.90
2019-05-07T02:07:11.854Z,99.90
2019-05-07T02:09:54.858Z,99.90
2019-05-07T02:12:31.768Z,99.90
2019-05-07T02:15:02.711Z,99.90
2019-05-07T02:17:32.223Z,99.90
2019-05-07T02:20:02.624Z,99.90
2019-05-07T02:22:32.201Z,99.90
2019-05-07T02:25:03.333Z,99.90
2019-05-07T02:27:32.986Z,99.90
2019-05-07T02:30:04.167Z,99.90
2019-05-07T02:32:33.897Z,99.90
2019-05-07T02:35:04.300Z,99.90
2019-05-07T02:37:52.283Z,99.90
2019-05-07T02:40:43.668Z,99.90
2019-05-07T02:43:14.062Z,99.90
2019-05-07T02:46:19.856Z,99.90
2019-05-07T02:48:39.270Z,99.90
2019-05-07T02:51:15.568Z,99.90
2019-05-07T02:53:59.460Z,99.90
2019-05-07T02:56:28.829Z,99.90
2019-05-07T02:58:58.186Z,99.90
2019-05-07T03:01:27.594Z,99.90
2019-05-07T03:03:56.868Z,99.90
2019-05-07T03:06:26.227Z,99.90
2019-05-07T03:08:55.590Z,99.90
2019-05-07T03:11:24.926Z,99.90
2019-05-07T03:13:54.287Z,99.90
2019-05-07T03:16:38.098Z,99.90
2019-05-07T03:18:55.031Z,99.90
2019-05-07T03:21:24.408Z,99.90
2019-05-07T03:24:03.773Z,99.90
2019-05-07T03:26:37.697Z,99.90
2019-05-07T03:29:13.035Z,99.90
2019-05-07T03:32:06.109Z,99.90
2019-05-07T03:34:46.182Z,99.90
2019-05-07T03:37:14.183Z,99.90
2019-05-07T03:39:43.639Z,99.90
2019-05-07T03:42:13.414Z,99.90
2019-05-07T03:44:49.038Z,99.90
2019-05-07T03:47:25.343Z,99.90
2019-05-07T03:49:55.033Z,99.90
2019-05-07T03:52:24.765Z,99.90
2019-05-07T03:54:54.342Z,99.90
2019-05-07T03:57:24.145Z,99.90
2019-05-07T03:59:53.704Z,99.90
2019-05-07T04:02:23.797Z,99.90
2019-05-07T04:04:53.586Z,99.90
2019-05-07T04:07:23.500Z,99.90
2019-05-07T04:09:53.578Z,99.90
2019-05-07T04:12:23.983Z,99.90
2019-05-07T04:14:53.856Z,99.90
2019-05-07T04:17:26.876Z,99.90
2019-05-07T04:19:55.813Z,99.90
2019-05-07T04:22:28.961Z,99.90
2019-05-07T04:25:20.227Z,99.90
2019-05-07T04:28:07.876Z,99.90
2019-05-07T04:30:37.686Z,99.90
2019-05-07T04:33:08.879Z,99.90
2019-05-07T04:35:43.626Z,99.90
2019-05-07T04:38:13.912Z,99.90
2019-05-07T04:40:43.770Z,99.90
2019-05-07T04:43:13.840Z,99.90
2019-05-07T04:45:43.641Z,99.90
2019-05-07T04:48:14.183Z,99.90
2019-05-07T04:50:47.687Z,99.90
2019-05-07T04:53:16.468Z,99.90
2019-05-07T04:55:45.815Z,99.90
2019-05-07T04:58:15.167Z,99.90
2019-05-07T05:00:44.550Z,99.90
2019-05-07T05:03:39.492Z,99.90
2019-05-07T05:06:09.054Z,99.90
2019-05-07T05:08:38.462Z,99.90
2019-05-07T05:11:07.837Z,99.90
2019-05-07T05:13:37.209Z,99.90
2019-05-07T05:16:25.903Z,99.90
2019-05-07T05:18:56.710Z,99.90
2019-05-07T05:21:42.062Z,99.90
2019-05-07T05:24:15.073Z,99.90
2019-05-07T05:26:44.440Z,99.90
2019-05-07T05:29:13.845Z,99.90
2019-05-07T05:31:43.308Z,99.90
2019-05-07T05:34:15.704Z,99.90
2019-05-07T05:36:47.838Z,99.90
2019-05-07T05:39:22.426Z,99.90
2019-05-07T05:41:55.375Z,99.90
2019-05-07T05:44:29.010Z,99.90
2019-05-07T05:47:02.403Z,99.90
2019-05-07T05:49:32.276Z,99.90
2019-05-07T05:52:33.121Z,99.90
2019-05-07T05:55:13.154Z,99.90
2019-05-07T05:57:55.998Z,99.90
2019-05-07T06:00:42.959Z,99.90
2019-05-07T06:03:34.055Z,99.90
2019-05-07T06:06:34.238Z,99.90
2019-05-07T06:09:22.581Z,99.90
2019-05-07T06:12:12.621Z,99.90
2019-05-07T06:15:06.684Z,99.90
2019-05-07T06:18:17.685Z,99.90
2019-05-07T06:21:00.265Z,99.90
2019-05-07T06:23:52.817Z,99.90
2019-05-07T06:26:22.786Z,99.90
2019-05-07T06:28:52.124Z,99.50
2019-05-07T06:31:22.178Z,99.20
2019-05-07T06:33:52.359Z,99.10
2019-05-07T06:36:22.087Z,99.10
2019-05-07T06:39:01.969Z,99.90
2019-05-07T06:41:49.243Z,99.90
2019-05-07T06:44:22.375Z,99.90
2019-05-07T06:46:52.646Z,99.90
2019-05-07T06:49:22.403Z,99.90
2019-05-07T06:51:52.820Z,99.00
2019-05-07T06:54:22.714Z,99.00
2019-05-07T06:56:52.421Z,97.20
2019-05-07T06:59:34.255Z,98.50
2019-05-07T07:02:33.479Z,98.90
2019-05-07T07:05:17.222Z,98.00
2019-05-07T07:08:02.647Z,98.50
2019-05-07T07:10:51.971Z,99.40
2019-05-07T07:13:22.954Z,97.00
2019-05-07T07:15:52.481Z,96.20
2019-05-07T07:18:23.105Z,97.40
2019-05-07T07:20:52.587Z,96.50
2019-05-07T07:23:22.593Z,98.40
2019-05-07T07:25:52.335Z,98.00
2019-05-07T07:28:22.070Z,97.40
2019-05-07T07:31:02.326Z,98.40
2019-05-07T07:33:33.566Z,97.90
2019-05-07T07:36:03.046Z,96.60
2019-05-07T07:38:36.370Z,95.80
2019-05-07T07:41:29.617Z,95.70
2019-05-07T07:43:58.969Z,96.30
2019-05-07T07:46:28.346Z,95.40
2019-05-07T07:49:08.033Z,95.00
2019-05-07T07:51:38.918Z,95.30
2019-05-07T07:54:02.288Z,95.90
2019-05-07T07:56:52.919Z,96.30
2019-05-07T07:59:47.977Z,95.40
2019-05-07T08:02:34.943Z,94.10
2019-05-07T08:05:05.216Z,93.00
2019-05-07T08:07:34.574Z,93.50
2019-05-07T08:10:04.731Z,92.80
2019-05-07T08:12:34.146Z,91.60
2019-05-07T08:15:14.508Z,97.60
2019-05-07T08:17:34.642Z,95.20
2019-05-07T08:20:05.102Z,98.00
2019-05-07T08:22:34.466Z,93.80
2019-05-07T08:25:05.104Z,92.40
2019-05-07T08:27:34.479Z,96.30
2019-05-07T08:30:05.257Z,95.10
2019-05-07T08:32:42.659Z,94.60
2019-05-07T08:35:29.078Z,90.70
2019-05-07T08:37:58.429Z,91.20
2019-05-07T08:40:27.853Z,92.90
2019-05-07T08:42:58.124Z,94.90
2019-05-07T08:45:45.437Z,91.80
2019-05-07T08:48:22.638Z,89.30
2019-05-07T08:50:52.520Z,91.60
2019-05-07T08:53:22.493Z,86.10
2019-05-07T08:55:52.634Z,86.80
2019-05-07T08:58:22.420Z,93.90
2019-05-07T09:00:52.318Z,89.30
2019-05-07T09:03:39.411Z,91.20
2019-05-07T09:06:08.797Z,92.20
2019-05-07T09:08:38.162Z,86.30
2019-05-07T09:11:07.531Z,92.50
2019-05-07T09:13:36.806Z,89.20
2019-05-07T09:16:06.205Z,92.90
2019-05-07T09:18:35.547Z,91.20
2019-05-07T09:21:04.895Z,96.60
2019-05-07T09:23:34.269Z,94.70
2019-05-07T09:26:03.660Z,93.50
2019-05-07T09:28:52.398Z,92.40
2019-05-07T09:31:32.098Z,79.50
2019-05-07T09:34:02.525Z,92.50
2019-05-07T09:36:39.298Z,91.00
2019-05-07T09:39:08.830Z,93.20
2019-05-07T09:41:38.206Z,95.50
2019-05-07T09:44:07.592Z,93.30
2019-05-07T09:46:37.221Z,93.60
2019-05-07T09:49:06.608Z,95.80
2019-05-07T09:51:35.968Z,94.20
2019-05-07T09:54:05.377Z,95.30
2019-05-07T09:56:34.732Z,93.50
2019-05-07T09:59:04.140Z,92.80
2019-05-07T10:01:33.479Z,90.50
2019-05-07T10:04:02.865Z,92.10
2019-05-07T10:06:32.290Z,93.10
2019-05-07T10:09:22.336Z,91.30
2019-05-07T10:11:59.330Z,92.70
2019-05-07T10:14:28.727Z,91.90
2019-05-07T10:17:22.423Z,93.10
2019-05-07T10:19:52.264Z,92.20
2019-05-07T10:22:22.778Z,91.40
2019-05-07T10:24:52.497Z,91.80
2019-05-07T10:27:22.365Z,88.40
2019-05-07T10:29:53.022Z,90.10
2019-05-07T10:32:22.442Z,87.30
2019-05-07T10:34:52.940Z,90.70
2019-05-07T10:37:22.282Z,91.00
2019-05-07T10:39:52.039Z,90.50
2019-05-07T10:42:22.713Z,86.80
2019-05-07T10:45:14.202Z,85.70
2019-05-07T10:47:52.128Z,91.90
2019-05-07T10:50:36.285Z,91.00
2019-05-07T10:52:57.747Z,90.90
2019-05-07T10:55:27.112Z,90.00
2019-05-07T10:57:56.527Z,90.40
2019-05-07T11:00:26.653Z,89.40
2019-05-07T11:02:56.005Z,90.10
2019-05-07T11:05:25.413Z,90.20
2019-05-07T11:07:54.783Z,87.30
2019-05-07T11:10:24.211Z,90.60
2019-05-07T11:12:53.602Z,85.70
2019-05-07T11:15:23.179Z,90.00
2019-05-07T11:18:12.607Z,87.60
2019-05-07T11:20:49.639Z,91.00
2019-05-07T11:23:13.299Z,78.00
2019-05-07T11:25:42.622Z,90.80
2019-05-07T11:28:12.424Z,88.20
2019-05-07T11:30:42.486Z,90.00
2019-05-07T11:33:12.862Z,89.00
2019-05-07T11:35:42.526Z,90.60
2019-05-07T11:38:20.658Z,90.80
2019-05-07T11:40:44.817Z,90.90
2019-05-07T11:43:39.150Z,88.40
2019-05-07T11:46:18.456Z,88.60
2019-05-07T11:48:53.494Z,90.00
2019-05-07T11:51:42.607Z,88.60
2019-05-07T11:54:13.510Z,90.30
2019-05-07T11:56:42.882Z,85.10
2019-05-07T11:59:13.450Z,90.60
2019-05-07T12:01:47.791Z,84.30
2019-05-07T12:04:17.507Z,90.80
2019-05-07T12:06:46.866Z,88.00
2019-05-07T12:09:16.246Z,89.70
2019-05-07T12:11:45.592Z,79.90
2019-05-07T12:14:27.344Z,89.40
2019-05-07T12:16:45.988Z,88.50
2019-05-07T12:19:16.613Z,88.70
2019-05-07T12:21:46.128Z,87.10
2019-05-07T12:24:16.487Z,81.90
2019-05-07T12:26:46.035Z,87.50
2019-05-07T12:29:15.466Z,88.20
2019-05-07T12:32:16.102Z,85.50
2019-05-07T12:34:48.674Z,83.60
2019-05-07T12:37:18.077Z,84.50
2019-05-07T12:39:47.466Z,85.00
2019-05-07T12:42:16.867Z,86.50
2019-05-07T12:44:46.286Z,85.90
2019-05-07T12:47:15.626Z,81.90
2019-05-07T12:49:45.031Z,86.40
2019-05-07T12:52:28.210Z,86.20
2019-05-07T12:55:19.569Z,77.10
2019-05-07T12:57:48.949Z,83.40
2019-05-07T13:00:36.185Z,81.60
2019-05-07T13:03:24.530Z,84.10
2019-05-07T13:05:53.925Z,85.00
2019-05-07T13:08:23.325Z,82.70
2019-05-07T13:10:52.738Z,82.80
2019-05-07T13:13:22.096Z,83.70
2019-05-07T13:15:51.859Z,84.10
2019-05-07T13:18:22.660Z,83.00
2019-05-07T13:20:52.138Z,84.10
2019-05-07T13:23:22.465Z,84.30
2019-05-07T13:25:52.348Z,81.40
2019-05-07T13:28:21.768Z,83.60
2019-05-07T13:30:52.618Z,79.60
2019-05-07T13:33:22.940Z,82.10
2019-05-07T13:35:52.863Z,82.30
2019-05-07T13:38:42.552Z,83.50
2019-05-07T13:41:23.855Z,81.80
2019-05-07T13:44:18.010Z,83.40
2019-05-07T13:46:49.426Z,83.10
2019-05-07T13:49:18.962Z,82.80
2019-05-07T13:52:01.071Z,84.50
2019-05-07T13:54:21.799Z,82.40
2019-05-07T13:56:52.559Z,81.90
2019-05-07T13:59:22.463Z,81.20
2019-05-07T14:02:04.983Z,82.60
2019-05-07T14:04:34.244Z,81.70
2019-05-07T14:07:03.675Z,82.10
2019-05-07T14:09:33.035Z,82.60
2019-05-07T14:12:02.442Z,81.10
2019-05-07T14:14:34.520Z,82.20
2019-05-07T14:17:02.777Z,82.50
2019-05-07T14:19:33.188Z,80.50
2019-05-07T14:22:14.836Z,79.50
2019-05-07T14:24:33.589Z,80.60
2019-05-07T14:27:03.053Z,81.30
2019-05-07T14:29:32.869Z,76.70
2019-05-07T14:32:23.452Z,82.10
2019-05-07T14:35:12.312Z,79.70
2019-05-07T14:37:48.728Z,81.30
2019-05-07T14:40:18.431Z,82.30
2019-05-07T14:42:52.650Z,81.20
2019-05-07T14:45:23.805Z,78.20
2019-05-07T14:47:53.066Z,78.40
2019-05-07T14:50:22.699Z,79.30
2019-05-07T14:52:55.071Z,81.50
2019-05-07T14:55:25.935Z,80.40
2019-05-07T14:57:55.326Z,79.50
2019-05-07T15:00:24.701Z,81.40
2019-05-07T15:02:54.258Z,81.20
2019-05-07T15:05:23.626Z,79.60
2019-05-07T15:08:06.524Z,74.60
2019-05-07T15:10:24.128Z,76.70
2019-05-07T15:12:53.598Z,81.10
2019-05-07T15:15:22.950Z,79.80
2019-05-07T15:17:57.778Z,78.40
2019-05-07T15:20:27.158Z,77.40
2019-05-07T15:23:08.068Z,80.30
2019-05-07T15:25:37.462Z,79.00
2019-05-07T15:28:07.768Z,79.80
2019-05-07T15:30:44.902Z,77.90
2019-05-07T15:33:14.279Z,77.50
2019-05-07T15:35:43.696Z,78.10
2019-05-07T15:38:14.231Z,77.40
2019-05-07T15:40:43.550Z,80.10
2019-05-07T15:43:13.050Z,79.10
2019-05-07T15:45:43.029Z,80.70
2019-05-07T15:48:15.443Z,81.60
2019-05-07T15:50:44.808Z,79.30
2019-05-07T15:53:19.278Z,78.90
2019-05-07T15:55:48.690Z,79.80
2019-05-07T15:58:18.066Z,80.00
2019-05-07T16:00:47.476Z,75.00
2019-05-07T16:03:24.983Z,81.70
2019-05-07T16:05:54.347Z,80.30
2019-05-07T16:08:25.054Z,79.70
2019-05-07T16:10:54.382Z,79.10
2019-05-07T16:13:27.694Z,81.00
2019-05-07T16:15:57.356Z,80.40
2019-05-07T16:18:32.655Z,80.70
2019-05-07T16:21:04.908Z,80.30
2019-05-07T16:23:33.204Z,80.80
2019-05-07T16:26:05.312Z,81.30
2019-05-07T16:28:33.609Z,80.50
2019-05-07T16:31:02.978Z,80.80
2019-05-07T16:33:34.782Z,80.90
2019-05-07T16:36:03.410Z,79.60
2019-05-07T16:38:32.854Z,81.10
2019-05-07T16:41:03.278Z,80.70
2019-05-07T16:43:32.765Z,81.80
2019-05-07T16:46:02.439Z,82.00
2019-05-07T16:48:32.741Z,82.20
2019-05-07T16:51:02.400Z,82.20
2019-05-07T16:53:34.993Z,82.70
2019-05-07T16:56:05.069Z,81.80
2019-05-07T16:58:39.055Z,81.00
2019-05-07T17:01:11.978Z,81.80
2019-05-07T17:03:48.307Z,83.40
2019-05-07T17:06:17.701Z,83.60
2019-05-07T17:08:55.106Z,82.90
2019-05-07T17:11:24.527Z,83.00
2019-05-07T17:13:54.062Z,81.60
2019-05-07T17:16:23.482Z,81.90
2019-05-07T17:18:53.042Z,82.90
2019-05-07T17:21:22.431Z,83.50
2019-05-07T17:23:54.877Z,82.80
2019-05-07T17:26:24.320Z,82.20
2019-05-07T17:28:53.843Z,84.00
2019-05-07T17:31:23.335Z,82.60
2019-05-07T17:33:55.770Z,81.60
2019-05-07T17:36:25.262Z,82.60
2019-05-07T17:38:54.607Z,83.50
2019-05-07T17:41:27.436Z,83.40
2019-05-07T17:43:57.034Z,84.70
2019-05-07T17:46:26.502Z,84.50
2019-05-07T17:48:55.874Z,84.70
2019-05-07T17:51:44.496Z,84.80
2019-05-07T17:54:14.361Z,85.20
2019-05-07T17:56:44.182Z,85.40
2019-05-07T17:59:13.647Z,85.50
2019-05-07T18:02:14.671Z,85.30
2019-05-07T18:04:52.229Z,85.10
2019-05-07T18:07:19.907Z,85.60
2019-05-07T18:09:49.206Z,86.20
2019-05-07T18:12:18.658Z,86.40
2019-05-07T18:14:48.029Z,86.90
2019-05-07T18:17:38.885Z,87.20
2019-05-07T18:20:08.239Z,87.30
2019-05-07T18:22:37.606Z,87.70
2019-05-07T18:25:07.540Z,87.90
2019-05-07T18:27:36.978Z,88.70
2019-05-07T18:30:07.598Z,88.80
2019-05-07T18:32:42.698Z,89.10
2019-05-07T18:35:12.697Z,89.30
2019-05-07T18:37:52.512Z,89.60
2019-05-07T18:40:22.759Z,89.80
2019-05-07T18:42:52.545Z,90.10
2019-05-07T18:45:21.989Z,90.60
2019-05-07T18:47:51.735Z,91.00
2019-05-07T18:50:22.606Z,91.30
2019-05-07T18:52:52.471Z,91.70
2019-05-07T18:55:22.731Z,92.30
2019-05-07T18:57:52.366Z,93.10
2019-05-07T19:00:32.311Z,93.00
2019-05-07T19:03:03.429Z,91.80
2019-05-07T19:05:32.766Z,92.60
2019-05-07T19:08:07.826Z,92.00
2019-05-07T19:10:33.203Z,93.30
2019-05-07T19:13:02.637Z,92.50
2019-05-07T19:15:33.798Z,92.80
2019-05-07T19:18:03.133Z,92.90
2019-05-07T19:20:34.103Z,93.40
2019-05-07T19:23:03.463Z,93.20
2019-05-07T19:25:35.645Z,92.80
2019-05-07T19:28:05.209Z,93.10
2019-05-07T19:30:34.631Z,92.80
2019-05-07T19:33:04.068Z,94.10
2019-05-07T19:35:33.683Z,94.00
2019-05-07T19:38:05.528Z,93.50
2019-05-07T19:40:37.219Z,94.10
2019-05-07T19:43:06.741Z,94.10
2019-05-07T19:45:36.187Z,95.30
2019-05-07T19:48:05.679Z,95.30
2019-05-07T19:50:35.050Z,95.00
2019-05-07T19:53:04.630Z,94.20
2019-05-07T19:55:52.603Z,95.10
2019-05-07T19:58:22.974Z,94.70
2019-05-07T20:00:57.248Z,95.80
2019-05-07T20:03:25.590Z,95.00
2019-05-07T20:05:55.128Z,95.50
2019-05-07T20:08:26.514Z,96.60
2019-05-07T20:11:02.711Z,97.70
2019-05-07T20:13:32.504Z,98.10
2019-05-07T20:16:12.177Z,98.10
2019-05-07T20:18:42.864Z,98.00
2019-05-07T20:21:12.609Z,98.00
2019-05-07T20:23:43.210Z,97.20
2019-05-07T20:26:12.836Z,97.00
2019-05-07T20:28:42.269Z,96.10
2019-05-07T20:31:12.467Z,96.30
2019-05-07T20:33:42.359Z,96.30
2019-05-07T20:36:11.849Z,95.00
2019-05-07T20:38:42.680Z,95.00
2019-05-07T20:41:13.705Z,95.50
2019-05-07T20:43:44.933Z,95.20
2019-05-07T20:46:14.313Z,95.20
2019-05-07T20:48:43.776Z,94.80
2019-05-07T20:51:13.162Z,95.40
2019-05-07T20:54:19.961Z,96.50
2019-05-07T20:57:02.275Z,95.80
2019-05-07T20:59:32.775Z,97.70
2019-05-07T21:02:02.465Z,98.70
2019-05-07T21:04:33.062Z,96.40
2019-05-07T21:07:02.698Z,99.30
2019-05-07T21:09:32.782Z,99.80
2019-05-07T21:12:02.503Z,99.90
2019-05-07T21:14:32.471Z,99.90
2019-05-07T21:17:02.118Z,99.90
2019-05-07T21:19:33.181Z,99.90
2019-05-07T21:22:02.798Z,99.90
2019-05-07T21:24:33.123Z,99.90
2019-05-07T21:27:07.347Z,99.90
2019-05-07T21:29:36.736Z,99.90
2019-05-07T21:32:06.191Z,99.90
2019-05-07T21:34:35.563Z,99.90
2019-05-07T21:37:08.257Z,99.00
2019-05-07T21:39:36.037Z,99.90
2019-05-07T21:42:05.459Z,99.90
2019-05-07T21:44:34.838Z,99.90
2019-05-07T21:47:04.364Z,99.90
2019-05-07T21:49:33.750Z,99.90
2019-05-07T21:52:03.147Z,99.90
2019-05-07T21:54:52.504Z,97.00
2019-05-07T21:57:52.419Z,99.40
2019-05-07T22:01:07.293Z,99.90
2019-05-07T22:03:43.660Z,99.90
2019-05-07T22:06:22.791Z,99.90
2019-05-07T22:08:52.516Z,99.90
2019-05-07T22:11:23.067Z,99.90
2019-05-07T22:13:54.756Z,99.90
2019-05-07T22:16:23.578Z,99.90
2019-05-07T22:18:52.992Z,99.90
2019-05-07T22:21:22.424Z,99.90
2019-05-07T22:23:52.297Z,99.90
2019-05-07T22:26:25.669Z,99.90
2019-05-07T22:28:54.178Z,99.90
2019-05-07T22:31:39.365Z,99.90
2019-05-07T22:34:36.983Z,99.90
2019-05-07T22:37:06.439Z,99.90
2019-05-07T22:39:35.811Z,99.90
2019-05-07T22:42:05.228Z,99.90
2019-05-07T22:44:34.654Z,99.90
2019-05-07T22:47:22.582Z,99.90
2019-05-07T22:49:53.731Z,99.90
2019-05-07T22:52:22.691Z,99.90
2019-05-07T22:54:52.098Z,99.90
2019-05-07T22:57:32.620Z,99.90
2019-05-07T23:00:04.517Z,99.90
2019-05-07T23:02:33.181Z,99.90
2019-05-07T23:05:03.010Z,99.90
2019-05-07T23:07:33.717Z,99.90
2019-05-07T23:10:03.106Z,99.90
2019-05-07T23:12:32.791Z,99.90
2019-05-07T23:15:02.758Z,99.90
2019-05-07T23:17:32.719Z,99.90
2019-05-07T23:20:02.114Z,99.90
2019-05-07T23:22:32.402Z,99.90
2019-05-07T23:25:04.445Z,99.90
2019-05-07T23:27:33.815Z,99.90
2019-05-07T23:30:03.242Z,99.90
2019-05-07T23:32:33.019Z,99.90
2019-05-07T23:35:02.471Z,99.90
2019-05-07T23:37:33.147Z,99.90
2019-05-07T23:40:07.025Z,99.90
2019-05-07T23:42:37.672Z,99.90
2019-05-07T23:45:07.307Z,99.90
2019-05-07T23:47:36.686Z,99.90
2019-05-07T23:50:06.211Z,99.90
2019-05-07T23:52:35.575Z,99.90
2019-05-07T23:55:05.115Z,99.90
2019-05-07T23:57:34.460Z,99.90
